LSMMLFLS

Guest
Details From LSMM - Meiringen
To LFLS - St Geoirs
Flight Number -
Tags generated
Created
Modified
Stats Distance 143 nm / 264 km
Max Altitude 16,500 ft / 5,029 m
Waypoints 3
Social Downloads 0
Likes 0
Share VATSIM

Download

Looking for another format? Having issues loading an existing format? Contact us
Advertisement - Login to hide

Notes

Basic altitude profile: - Ascent Rate: 1500ft/min - Ascent Speed: 180kts - Cruise Altitude: 20000ft - Cruise Speed: 230kts - Descent Rate: 1500ft/min - Descent Speed: 250kts

Route

LSMM SANET LFLS

ID Type Via Altitude Latitude Longitude Leg Dist Tot Dist Heading (true) Name
O LSMM APT - 0 ft / 0 m 46.74233˚ 8.10875˚ - 0 nm - Meiringen
SANET FIX - 16,500 ft / 5,029 m 46.33194˚ 7.27556˚ 42 nm 42 nm 235° / 234° -
O LFLS APT - 0 ft / 0 m 45.36118˚ 5.32753˚ 100 nm 142 nm 235° / 234° St Geoirs

Altitude Profile

Advertisement - Login to hide

LSMM

Details ICAO LSMM
Name Meiringen
Region Switzerland
Timezone Europe/Zurich (UTC+1.0)
Stats Elevation 1,879 ft / 573 m (AMSL)
Location 46.742327° 8.108747°
Runways 1
Magnetic Variation 2.235° E

METAR

LSMM 172250Z AUTO 09006KT 9999NDV FEW023 SCT026 BKN034 M03/M06 Q1028 RMK

Decode

TAF

Not found

Departure Runways

ID Width Length Bearing (true) Bearing (mag) Surface Threshold Offset Overrun Length
10 131 ft / 40 m 6,884 ft / 2,098 m 96.60° 94.36° Concrete 150 ft / 46 m 623 ft / 190 m
28 131 ft / 40 m 6,884 ft / 2,098 m 276.62° 274.38° Concrete 150 ft / 46 m 623 ft / 190 m

LFLS

Details ICAO LFLS (GNB)
Name St Geoirs
Region France
Timezone Europe/Paris (UTC+1.0)
Stats Elevation 1,302 ft / 397 m (AMSL)
Location 45.361183° 5.327528°
Runways 3
Magnetic Variation 1.556° E

METAR

LFLS 172330Z AUTO 05003KT 9999 FEW015 BKN031 M01/M02 Q1029

Decode

TAF

TAF LFLS 172000Z 1720/1815 CNL

Decode

Destination Runways

ID Width Length Bearing (true) Bearing (mag) Surface Threshold Offset Overrun Length
09 148 ft / 45 m 9,979 ft / 3,042 m 90.22° 88.66° Asphalt 0 ft / 0 m 0 ft / 0 m
09R 102 ft / 31 m 2,951 ft / 899 m 90.20° 88.64° Grass 0 ft / 0 m 0 ft / 0 m
16 82 ft / 25 m 1,640 ft / 500 m 160.10° 158.54° Grass 0 ft / 0 m 0 ft / 0 m
27 148 ft / 45 m 9,979 ft / 3,042 m 270.24° 268.68° Asphalt 0 ft / 0 m 0 ft / 0 m
27L 102 ft / 31 m 2,951 ft / 899 m 270.20° 268.64° Grass 0 ft / 0 m 0 ft / 0 m
34 82 ft / 25 m 1,640 ft / 500 m 340.10° 338.54° Grass 0 ft / 0 m 0 ft / 0 m

Approach Navaids

Runway Type Ident Frequency Range Bearing (true) Bearing (mag) Slope Elevation
09 Localiser SG 109.30 MHz 27 nm / 50 km 90.23° 88.67° - 1,302 ft / 397 m (AMSL)
09 Glidescope SG 109.30 MHz 27 nm / 50 km 90.23° 88.67° 3.00° 1,302 ft / 397 m (AMSL)
09 DME SG 109.30 MHz 27 nm / 50 km - - - 1,302 ft / 397 m (AMSL)